createdAt,value
2023-02-22T00:01:29.351Z,99.90
2023-02-22T00:03:55.893Z,99.90
2023-02-22T00:06:22.962Z,99.90
2023-02-22T00:08:49.500Z,99.90
2023-02-22T00:11:16.759Z,99.90
2023-02-22T00:13:44.059Z,99.90
2023-02-22T00:16:15.841Z,99.90
2023-02-22T00:18:42.495Z,99.90
2023-02-22T00:21:09.383Z,99.90
2023-02-22T00:23:36.745Z,99.90
2023-02-22T00:26:03.344Z,99.90
2023-02-22T00:28:29.969Z,99.90
2023-02-22T00:30:56.550Z,99.90
2023-02-22T00:33:23.396Z,99.90
2023-02-22T00:35:49.979Z,99.90
2023-02-22T00:38:18.704Z,99.90
2023-02-22T00:40:45.624Z,99.90
2023-02-22T00:43:12.614Z,99.90
2023-02-22T00:45:39.209Z,99.90
2023-02-22T00:48:06.664Z,99.90
2023-02-22T00:50:33.956Z,99.90
2023-02-22T00:53:02.355Z,99.90
2023-02-22T00:55:33.638Z,99.90
2023-02-22T00:58:00.885Z,99.90
2023-02-22T01:00:38.080Z,99.90
2023-02-22T01:03:07.301Z,99.90
2023-02-22T01:05:34.172Z,99.90
2023-02-22T01:08:02.111Z,99.90
2023-02-22T01:10:31.002Z,99.90
2023-02-22T01:12:59.233Z,99.90
2023-02-22T01:15:28.886Z,99.90
2023-02-22T01:17:55.456Z,99.90
2023-02-22T01:20:23.188Z,99.90
2023-02-22T01:22:52.453Z,99.90
2023-02-22T01:25:24.733Z,99.90
2023-02-22T01:27:52.059Z,99.90
2023-02-22T01:30:23.579Z,99.90
2023-02-22T01:32:50.379Z,99.90
2023-02-22T01:35:23.075Z,99.90
2023-02-22T01:37:49.681Z,99.90
2023-02-22T01:40:26.575Z,99.90
2023-02-22T01:42:55.516Z,99.90
2023-02-22T01:45:31.322Z,99.90
2023-02-22T01:48:04.850Z,99.90
2023-02-22T01:50:35.323Z,99.90
2023-02-22T01:53:02.784Z,99.90
2023-02-22T01:55:29.485Z,99.90
2023-02-22T01:57:56.045Z,99.90
2023-02-22T02:00:23.627Z,99.90
2023-02-22T02:02:58.234Z,99.90
2023-02-22T02:05:28.848Z,99.90
2023-02-22T02:07:55.385Z,99.90
2023-02-22T02:10:22.329Z,99.90
2023-02-22T02:12:50.870Z,99.90
2023-02-22T02:15:24.503Z,99.90
2023-02-22T02:17:56.762Z,99.90
2023-02-22T02:20:38.341Z,99.90
2023-02-22T02:23:16.796Z,99.90
2023-02-22T02:26:10.678Z,99.90
2023-02-22T02:29:13.269Z,99.90
2023-02-22T02:32:13.724Z,99.90
2023-02-22T02:35:03.585Z,99.90
2023-02-22T02:37:50.503Z,99.90
2023-02-22T02:40:40.882Z,99.90
2023-02-22T02:43:13.943Z,99.90
2023-02-22T02:45:55.772Z,99.90
2023-02-22T02:48:27.276Z,99.90
2023-02-22T02:50:57.945Z,99.90
2023-02-22T02:53:30.885Z,99.90
2023-02-22T02:55:59.496Z,99.90
2023-02-22T02:58:26.854Z,99.90
2023-02-22T03:00:57.221Z,99.90
2023-02-22T03:03:29.311Z,99.90
2023-02-22T03:06:18.704Z,99.90
2023-02-22T03:08:53.591Z,99.90
2023-02-22T03:11:24.701Z,99.90
2023-02-22T03:14:05.995Z,99.90
2023-02-22T03:17:04.692Z,99.90
2023-02-22T03:19:45.315Z,99.90
2023-02-22T03:22:22.315Z,99.90
2023-02-22T03:25:01.531Z,99.90
2023-02-22T03:27:37.060Z,99.90
2023-02-22T03:30:10.265Z,99.90
2023-02-22T03:32:45.980Z,99.90
2023-02-22T03:35:18.995Z,99.90
2023-02-22T03:37:47.841Z,99.90
2023-02-22T03:40:19.153Z,99.90
2023-02-22T03:42:52.187Z,99.90
2023-02-22T03:45:23.022Z,99.90
2023-02-22T03:47:53.466Z,99.90
2023-02-22T03:50:28.206Z,99.90
2023-02-22T03:52:54.941Z,99.90
2023-02-22T03:55:22.008Z,99.90
2023-02-22T03:57:53.668Z,99.90
2023-02-22T04:00:24.395Z,99.90
2023-02-22T04:02:51.394Z,99.90
2023-02-22T04:05:18.224Z,99.90
2023-02-22T04:07:44.867Z,99.90
2023-02-22T04:10:12.754Z,99.90
2023-02-22T04:12:39.400Z,99.90
2023-02-22T04:15:07.441Z,99.90
2023-02-22T04:17:34.025Z,99.90
2023-02-22T04:20:00.608Z,99.90
2023-02-22T04:22:27.210Z,99.90
2023-02-22T04:24:53.763Z,99.90
2023-02-22T04:27:20.327Z,99.90
2023-02-22T04:29:46.909Z,99.90
2023-02-22T04:32:13.469Z,99.90
2023-02-22T04:34:40.045Z,99.90
2023-02-22T04:37:06.609Z,99.90
2023-02-22T04:39:33.569Z,99.90
2023-02-22T04:42:00.188Z,99.90
2023-02-22T04:44:26.779Z,99.90
2023-02-22T04:46:53.350Z,99.90
2023-02-22T04:49:19.920Z,99.90
2023-02-22T04:51:46.472Z,99.90
2023-02-22T04:54:13.076Z,99.90
2023-02-22T04:56:39.630Z,99.90
2023-02-22T04:59:06.229Z,99.90
2023-02-22T05:01:34.342Z,99.90
2023-02-22T05:04:03.162Z,99.90
2023-02-22T05:06:29.747Z,99.90
2023-02-22T05:08:56.357Z,99.90
2023-02-22T05:11:23.098Z,99.90
2023-02-22T05:13:49.694Z,99.90
2023-02-22T05:16:16.628Z,99.90
2023-02-22T05:18:43.304Z,99.90
2023-02-22T05:21:10.273Z,99.90
2023-02-22T05:23:36.850Z,99.90
2023-02-22T05:26:03.499Z,99.90
2023-02-22T05:28:30.044Z,99.90
2023-02-22T05:30:56.609Z,99.90
2023-02-22T05:33:23.253Z,99.90
2023-02-22T05:35:50.162Z,99.90
2023-02-22T05:38:17.095Z,99.90
2023-02-22T05:40:43.664Z,99.90
2023-02-22T05:43:10.622Z,99.90
2023-02-22T05:45:37.196Z,99.90
2023-02-22T05:48:05.058Z,99.90
2023-02-22T05:50:31.658Z,99.90
2023-02-22T05:52:58.528Z,99.90
2023-02-22T05:55:25.196Z,99.90
2023-02-22T05:57:52.736Z,99.90
2023-02-22T06:00:22.904Z,99.90
2023-02-22T06:03:01.375Z,99.90
2023-02-22T06:05:28.905Z,99.90
2023-02-22T06:07:56.738Z,99.90
2023-02-22T06:10:23.799Z,99.90
2023-02-22T06:12:51.408Z,99.90
2023-02-22T06:15:19.807Z,99.90
2023-02-22T06:17:47.213Z,99.90
2023-02-22T06:20:15.979Z,99.90
2023-02-22T06:22:42.553Z,99.90
2023-02-22T06:25:10.433Z,99.90
2023-02-22T06:27:37.063Z,99.90
2023-02-22T06:30:04.226Z,99.90
2023-02-22T06:32:31.583Z,99.90
2023-02-22T06:34:58.428Z,99.90
2023-02-22T06:37:24.973Z,99.90
2023-02-22T06:39:51.536Z,99.90
2023-02-22T06:42:18.103Z,99.90
2023-02-22T06:44:44.669Z,99.90
2023-02-22T06:47:11.235Z,99.90
2023-02-22T06:49:37.792Z,99.90
2023-02-22T06:52:05.720Z,99.90
2023-02-22T06:54:32.625Z,99.90
2023-02-22T06:56:59.222Z,99.90
2023-02-22T06:59:25.785Z,99.90
2023-02-22T07:01:52.325Z,99.90
2023-02-22T07:04:18.944Z,99.90
2023-02-22T07:06:49.926Z,99.90
2023-02-22T07:09:17.856Z,99.90
2023-02-22T07:11:44.509Z,99.90
2023-02-22T07:14:11.125Z,99.90
2023-02-22T07:16:37.824Z,99.90
2023-02-22T07:19:04.512Z,99.90
2023-02-22T07:21:31.159Z,99.90
2023-02-22T07:23:58.592Z,99.90
2023-02-22T07:26:26.246Z,99.90
2023-02-22T07:28:53.025Z,99.90
2023-02-22T07:31:19.746Z,99.90
2023-02-22T07:33:47.402Z,99.90
2023-02-22T07:36:14.315Z,99.90
2023-02-22T07:38:40.877Z,99.90
2023-02-22T07:41:07.443Z,99.90
2023-02-22T07:43:34.028Z,99.90
2023-02-22T07:46:01.415Z,99.90
2023-02-22T07:48:29.751Z,99.90
2023-02-22T07:50:57.359Z,99.90
2023-02-22T07:53:29.662Z,99.90
2023-02-22T07:56:01.320Z,99.90
2023-02-22T07:58:29.664Z,99.90
2023-02-22T08:00:56.361Z,99.90
2023-02-22T08:03:25.316Z,99.90
2023-02-22T08:05:55.295Z,99.90
2023-02-22T08:08:22.536Z,99.90
2023-02-22T08:10:50.497Z,99.90
2023-02-22T08:13:18.577Z,99.90
2023-02-22T08:15:45.196Z,99.90
2023-02-22T08:18:15.581Z,99.90
2023-02-22T08:20:44.178Z,99.90
2023-02-22T08:23:11.955Z,99.90
2023-02-22T08:25:38.537Z,99.90
2023-02-22T08:28:07.729Z,99.90
2023-02-22T08:30:35.377Z,99.90
2023-02-22T08:33:03.134Z,99.90
2023-02-22T08:35:31.133Z,99.90
2023-02-22T08:38:00.260Z,99.90
2023-02-22T08:40:29.590Z,99.90
2023-02-22T08:42:56.451Z,99.90
2023-02-22T08:45:23.122Z,99.90
2023-02-22T08:47:50.178Z,99.90
2023-02-22T08:50:28.836Z,99.90
2023-02-22T08:52:57.722Z,99.90
2023-02-22T08:55:26.466Z,99.90
2023-02-22T08:57:53.050Z,99.90
2023-02-22T09:00:21.487Z,99.90
2023-02-22T09:02:48.082Z,99.90
2023-02-22T09:05:14.683Z,99.90
2023-02-22T09:07:41.868Z,99.90
2023-02-22T09:10:11.692Z,99.90
2023-02-22T09:12:38.267Z,99.90
2023-02-22T09:15:05.023Z,99.90
2023-02-22T09:17:31.566Z,99.90
2023-02-22T09:19:58.123Z,99.90
2023-02-22T09:22:24.731Z,99.90
2023-02-22T09:24:52.454Z,99.90
2023-02-22T09:27:19.056Z,99.90
2023-02-22T09:29:48.544Z,99.90
2023-02-22T09:32:15.648Z,99.90
2023-02-22T09:34:42.284Z,99.90
2023-02-22T09:37:08.870Z,99.90
2023-02-22T09:39:35.517Z,99.90
2023-02-22T09:42:24.367Z,99.90
2023-02-22T09:45:15.586Z,99.90
2023-02-22T09:47:49.888Z,99.90
2023-02-22T09:50:33.297Z,99.90
2023-02-22T09:53:24.164Z,99.90
2023-02-22T09:55:53.884Z,99.90
2023-02-22T09:58:32.993Z,99.90
2023-02-22T10:01:18.241Z,99.90
2023-02-22T10:03:54.125Z,99.90
2023-02-22T10:06:24.062Z,99.90
2023-02-22T10:08:58.440Z,99.90
2023-02-22T10:11:46.743Z,99.90
2023-02-22T10:14:38.589Z,99.90
2023-02-22T10:17:22.193Z,99.90
2023-02-22T10:20:33.545Z,99.90
2023-02-22T10:23:04.790Z,99.90
2023-02-22T10:25:37.160Z,99.90
2023-02-22T10:28:10.790Z,99.90
2023-02-22T10:30:45.806Z,99.90
2023-02-22T10:33:20.885Z,99.90
2023-02-22T10:35:48.527Z,99.90
2023-02-22T10:38:19.360Z,99.90
2023-02-22T10:40:52.897Z,99.90
2023-02-22T10:43:19.524Z,99.90
2023-02-22T10:45:46.357Z,99.90
2023-02-22T10:48:18.656Z,99.90
2023-02-22T10:50:46.603Z,99.90
2023-02-22T10:53:13.982Z,99.90
2023-02-22T10:56:06.639Z,99.90
2023-02-22T10:59:00.280Z,99.90
2023-02-22T11:01:32.766Z,99.90
2023-02-22T11:04:09.741Z,99.90
2023-02-22T11:06:36.827Z,99.90
2023-02-22T11:09:21.728Z,99.90
2023-02-22T11:11:48.739Z,99.90
2023-02-22T11:14:29.331Z,99.90
2023-02-22T11:16:58.186Z,99.90
2023-02-22T11:19:31.001Z,99.90
2023-02-22T11:22:09.796Z,99.90
2023-02-22T11:24:49.758Z,99.90
2023-02-22T11:27:36.696Z,99.90
2023-02-22T11:30:15.755Z,99.90
2023-02-22T11:32:49.261Z,99.90
2023-02-22T11:35:30.428Z,99.90
2023-02-22T11:38:18.475Z,99.90
2023-02-22T11:40:45.726Z,99.90
2023-02-22T11:43:20.229Z,99.90
2023-02-22T11:45:59.443Z,99.90
2023-02-22T11:48:29.360Z,99.90
2023-02-22T11:51:26.652Z,99.90
2023-02-22T11:53:59.251Z,99.90
2023-02-22T11:56:37.739Z,99.90
2023-02-22T11:59:27.819Z,99.90
2023-02-22T12:01:58.080Z,99.90
2023-02-22T12:05:14.333Z,99.90
2023-02-22T12:07:52.161Z,99.90
2023-02-22T12:10:43.461Z,98.20
2023-02-22T12:13:40.226Z,98.30
2023-02-22T12:16:15.116Z,99.90
2023-02-22T12:18:48.153Z,98.80
2023-02-22T12:21:18.294Z,98.80
2023-02-22T12:24:02.163Z,98.50
2023-02-22T12:26:35.141Z,97.10
2023-02-22T12:29:12.523Z,97.40
2023-02-22T12:31:41.414Z,97.70
2023-02-22T12:34:29.906Z,95.40
2023-02-22T12:37:03.898Z,94.10
2023-02-22T12:39:56.176Z,95.50
2023-02-22T12:42:33.917Z,93.60
2023-02-22T12:45:10.405Z,92.80
2023-02-22T12:47:47.819Z,93.30
2023-02-22T12:50:21.669Z,91.10
2023-02-22T12:53:12.144Z,91.10
2023-02-22T12:55:58.833Z,91.40
2023-02-22T12:58:36.130Z,92.70
2023-02-22T13:01:14.650Z,92.40
2023-02-22T13:03:43.529Z,92.70
2023-02-22T13:06:51.459Z,91.70
2023-02-22T13:09:38.145Z,91.50
2023-02-22T13:12:31.484Z,92.30
2023-02-22T13:14:58.030Z,86.50
2023-02-22T13:17:32.067Z,84.60
2023-02-22T13:20:33.327Z,82.60
2023-02-22T13:23:39.295Z,85.00
2023-02-22T13:26:23.698Z,84.50
2023-02-22T13:28:59.798Z,83.70
2023-02-22T13:31:57.256Z,79.60
2023-02-22T13:34:43.696Z,78.90
2023-02-22T13:37:43.068Z,78.10
2023-02-22T13:40:46.593Z,78.60
2023-02-22T13:43:19.178Z,79.60
2023-02-22T13:45:58.925Z,80.20
2023-02-22T13:48:31.469Z,80.10
2023-02-22T13:51:56.187Z,78.50
2023-02-22T13:54:25.788Z,78.50
2023-02-22T13:56:55.147Z,76.20
2023-02-22T13:59:36.672Z,75.20
2023-02-22T14:02:05.563Z,78.60
2023-02-22T14:04:32.098Z,78.40
2023-02-22T14:07:01.682Z,76.90
2023-02-22T14:09:47.171Z,78.90
2023-02-22T14:12:29.101Z,76.90
2023-02-22T14:15:26.216Z,78.80
2023-02-22T14:18:00.659Z,75.00
2023-02-22T14:20:35.731Z,77.10
2023-02-22T14:23:34.766Z,74.80
2023-02-22T14:26:26.859Z,75.60
2023-02-22T14:28:57.769Z,75.20
2023-02-22T14:31:36.648Z,75.60
2023-02-22T14:34:21.261Z,76.20
2023-02-22T14:37:04.079Z,76.00
2023-02-22T14:39:44.215Z,76.30
2023-02-22T14:42:14.243Z,76.20
2023-02-22T14:44:51.240Z,75.30
2023-02-22T14:47:49.824Z,76.20
2023-02-22T14:50:24.641Z,78.40
2023-02-22T14:53:10.196Z,79.90
2023-02-22T14:55:57.866Z,83.40
2023-02-22T14:58:42.306Z,83.30
2023-02-22T15:01:40.570Z,84.70
2023-02-22T15:04:18.193Z,85.50
2023-02-22T15:06:45.204Z,88.40
2023-02-22T15:09:26.359Z,87.30
2023-02-22T15:12:05.030Z,85.90
2023-02-22T15:14:34.586Z,88.00
2023-02-22T15:17:06.557Z,90.20
2023-02-22T15:19:39.947Z,84.70
2023-02-22T15:22:14.893Z,84.20
2023-02-22T15:24:41.513Z,81.80
2023-02-22T15:27:17.076Z,81.70
2023-02-22T15:29:44.953Z,82.60
2023-02-22T15:32:53.441Z,82.40
2023-02-22T15:35:30.224Z,84.40
2023-02-22T15:38:20.883Z,83.00
2023-02-22T15:40:48.175Z,84.40
2023-02-22T15:43:23.853Z,85.40
2023-02-22T15:45:51.730Z,88.20
2023-02-22T15:48:18.952Z,91.20
2023-02-22T15:51:05.444Z,92.00
2023-02-22T15:53:37.507Z,93.00
2023-02-22T15:56:09.382Z,93.70
2023-02-22T15:58:36.792Z,94.80
2023-02-22T16:01:05.534Z,95.70
2023-02-22T16:04:01.231Z,96.20
2023-02-22T16:06:34.758Z,96.60
2023-02-22T16:09:09.578Z,97.60
2023-02-22T16:11:39.682Z,98.90
2023-02-22T16:14:30.989Z,99.50
2023-02-22T16:17:25.565Z,99.90
2023-02-22T16:19:53.159Z,99.90
2023-02-22T16:22:34.139Z,99.90
2023-02-22T16:25:18.960Z,99.90
2023-02-22T16:27:46.892Z,99.90
2023-02-22T16:30:31.667Z,99.90
2023-02-22T16:32:58.539Z,99.90
2023-02-22T16:35:26.068Z,99.90
2023-02-22T16:37:57.974Z,99.90
2023-02-22T16:40:51.888Z,99.90
2023-02-22T16:43:21.712Z,99.90
2023-02-22T16:45:48.563Z,99.90
2023-02-22T16:48:26.470Z,99.90
2023-02-22T16:50:55.541Z,99.90
2023-02-22T16:53:25.043Z,99.90
2023-02-22T16:55:53.983Z,99.90
2023-02-22T16:58:20.589Z,99.90
2023-02-22T17:00:47.238Z,99.90
2023-02-22T17:03:18.594Z,99.90
2023-02-22T17:05:45.217Z,99.90
2023-02-22T17:08:11.864Z,99.90
2023-02-22T17:10:38.421Z,99.90
2023-02-22T17:13:21.621Z,99.90
2023-02-22T17:15:49.650Z,99.90
2023-02-22T17:18:18.138Z,99.90
2023-02-22T17:20:44.734Z,99.90
2023-02-22T17:23:11.650Z,99.90
2023-02-22T17:25:44.479Z,99.90
2023-02-22T17:28:11.539Z,99.90
2023-02-22T17:30:38.349Z,99.90
2023-02-22T17:33:08.100Z,99.90
2023-02-22T17:35:37.341Z,99.90
2023-02-22T17:38:05.521Z,99.90
2023-02-22T17:40:36.545Z,99.90
2023-02-22T17:43:03.951Z,99.90
2023-02-22T17:45:30.990Z,99.90
2023-02-22T17:47:57.802Z,99.90
2023-02-22T17:50:25.499Z,99.90
2023-02-22T17:52:52.228Z,99.90
2023-02-22T17:55:20.250Z,99.90
2023-02-22T17:57:47.760Z,99.90
2023-02-22T18:00:17.119Z,99.90
2023-02-22T18:02:44.167Z,99.90
2023-02-22T18:05:12.563Z,99.90
2023-02-22T18:07:39.116Z,99.90
2023-02-22T18:10:06.192Z,99.90
2023-02-22T18:12:32.758Z,99.90
2023-02-22T18:14:59.505Z,99.90
2023-02-22T18:17:26.044Z,99.90
2023-02-22T18:19:52.662Z,99.90
2023-02-22T18:22:19.223Z,99.90
2023-02-22T18:24:45.888Z,99.90
2023-02-22T18:27:12.512Z,99.90
2023-02-22T18:29:39.117Z,99.90
2023-02-22T18:32:05.667Z,99.90
2023-02-22T18:34:32.288Z,99.90
2023-02-22T18:36:59.057Z,99.90
2023-02-22T18:39:25.668Z,99.90
2023-02-22T18:41:52.235Z,99.90
2023-02-22T18:44:18.822Z,99.90
2023-02-22T18:46:45.442Z,99.90
2023-02-22T18:49:13.488Z,99.90
2023-02-22T18:51:40.700Z,99.90
2023-02-22T18:54:07.266Z,99.90
2023-02-22T18:56:33.854Z,99.90
2023-02-22T18:59:02.399Z,99.90
2023-02-22T19:01:31.281Z,99.90
2023-02-22T19:03:57.985Z,99.90
2023-02-22T19:06:24.745Z,99.90
2023-02-22T19:08:51.768Z,99.90
2023-02-22T19:11:23.813Z,99.90
2023-02-22T19:13:54.095Z,99.90
2023-02-22T19:16:23.227Z,99.90
2023-02-22T19:18:51.932Z,99.90
2023-02-22T19:21:18.937Z,99.90
2023-02-22T19:23:45.849Z,99.90
2023-02-22T19:26:14.308Z,99.90
2023-02-22T19:28:40.876Z,99.90
2023-02-22T19:31:30.453Z,99.90
2023-02-22T19:34:01.624Z,99.90
2023-02-22T19:36:28.351Z,99.90
2023-02-22T19:38:55.029Z,99.90
2023-02-22T19:41:23.008Z,99.90
2023-02-22T19:43:51.827Z,99.90
2023-02-22T19:46:18.763Z,99.90
2023-02-22T19:48:45.577Z,99.90
2023-02-22T19:51:14.063Z,99.90
2023-02-22T19:53:41.602Z,99.90
2023-02-22T19:56:10.691Z,99.90
2023-02-22T19:58:39.231Z,99.90
2023-02-22T20:01:18.073Z,99.90
2023-02-22T20:03:44.992Z,99.90
2023-02-22T20:06:12.088Z,99.90
2023-02-22T20:08:39.257Z,99.90
2023-02-22T20:11:07.084Z,99.90
2023-02-22T20:13:33.711Z,99.90
2023-02-22T20:16:00.323Z,99.90
2023-02-22T20:18:26.892Z,99.90
2023-02-22T20:20:53.451Z,99.90
2023-02-22T20:23:20.021Z,99.90
2023-02-22T20:25:54.685Z,99.90
2023-02-22T20:28:22.390Z,99.90
2023-02-22T20:30:49.323Z,99.90
2023-02-22T20:33:16.029Z,99.90
2023-02-22T20:35:42.768Z,99.90
2023-02-22T20:38:09.560Z,99.90
2023-02-22T20:40:36.127Z,99.90
2023-02-22T20:43:02.775Z,99.90
2023-02-22T20:45:29.333Z,99.90
2023-02-22T20:47:55.900Z,99.90
2023-02-22T20:50:22.453Z,99.90
2023-02-22T20:52:49.041Z,99.90
2023-02-22T20:55:15.619Z,99.90
2023-02-22T20:57:42.192Z,99.90
2023-02-22T21:00:09.323Z,99.90
2023-02-22T21:02:36.929Z,99.90
2023-02-22T21:05:04.644Z,99.90
2023-02-22T21:07:31.245Z,99.90
2023-02-22T21:09:57.816Z,99.90
2023-02-22T21:12:24.486Z,99.90
2023-02-22T21:14:51.023Z,99.90
2023-02-22T21:17:17.595Z,99.90
2023-02-22T21:19:44.259Z,99.90
2023-02-22T21:22:10.787Z,99.90
2023-02-22T21:24:37.447Z,99.90
2023-02-22T21:27:04.435Z,99.90
2023-02-22T21:29:30.975Z,99.90
2023-02-22T21:31:57.667Z,99.90
2023-02-22T21:34:24.402Z,99.90
2023-02-22T21:36:50.996Z,99.90
2023-02-22T21:39:17.630Z,99.90
2023-02-22T21:41:46.128Z,99.90
2023-02-22T21:44:13.318Z,99.90
2023-02-22T21:46:40.468Z,99.90
2023-02-22T21:49:07.482Z,99.90
2023-02-22T21:51:34.732Z,99.90
2023-02-22T21:54:03.627Z,99.90
2023-02-22T21:56:35.107Z,99.90
2023-02-22T21:59:04.890Z,99.90
2023-02-22T22:01:38.276Z,99.90
2023-02-22T22:04:05.286Z,99.90
2023-02-22T22:06:33.440Z,99.90
2023-02-22T22:09:00.357Z,99.90
2023-02-22T22:11:27.040Z,99.90
2023-02-22T22:13:54.397Z,99.90
2023-02-22T22:16:20.983Z,99.90
2023-02-22T22:18:47.580Z,99.90
2023-02-22T22:21:17.822Z,99.90
2023-02-22T22:23:46.151Z,99.90
2023-02-22T22:26:15.467Z,99.90
2023-02-22T22:28:49.650Z,99.90
2023-02-22T22:31:18.081Z,99.90
2023-02-22T22:33:45.977Z,99.90
2023-02-22T22:36:14.684Z,99.90
2023-02-22T22:38:41.674Z,99.90
2023-02-22T22:41:10.709Z,99.90
2023-02-22T22:43:37.438Z,99.90
2023-02-22T22:46:06.009Z,99.90
2023-02-22T22:48:34.721Z,99.90
2023-02-22T22:51:05.192Z,99.90
2023-02-22T22:53:33.210Z,99.90
2023-02-22T22:56:04.975Z,99.90
2023-02-22T22:58:35.310Z,99.90
2023-02-22T23:01:02.663Z,99.90
2023-02-22T23:03:29.876Z,99.90
2023-02-22T23:06:01.389Z,99.90
2023-02-22T23:08:27.969Z,99.90
2023-02-22T23:10:55.365Z,99.90
2023-02-22T23:13:21.953Z,99.90
2023-02-22T23:15:49.157Z,99.90
2023-02-22T23:18:16.383Z,99.90
2023-02-22T23:20:42.932Z,99.90
2023-02-22T23:23:09.481Z,99.90
2023-02-22T23:25:36.038Z,99.90
2023-02-22T23:28:02.603Z,99.90
2023-02-22T23:30:29.185Z,99.90
2023-02-22T23:32:55.785Z,99.90
2023-02-22T23:35:22.437Z,99.90
2023-02-22T23:37:52.275Z,99.90
2023-02-22T23:40:19.297Z,99.90
2023-02-22T23:42:49.552Z,99.90
2023-02-22T23:45:17.477Z,99.90
2023-02-22T23:47:44.003Z,99.90
2023-02-22T23:50:11.256Z,99.90
2023-02-22T23:52:37.811Z,99.90
2023-02-22T23:55:05.011Z,99.90
2023-02-22T23:57:31.958Z,99.90
2023-02-22T23:59:58.516Z,99.90
